Time;durP1;ratioP1;P1;durP2;ratioP2;P2;SDS_P1;SDS_P2;PMS_P1;PMS_P2;Temp;Humidity;BMP_temperature;BMP_pressure;BME280_temperature;BME280_humidity;BME280_pressure;Samples;Min_cycle;Max_cycle;Signal;HPM_P1;HPM_P2
2023/04/13 00:00:22;;;;;;;8.25;4.28;;;6.60;99.90;;;;;;4807203;29;20287;-78
2023/04/13 00:02:54;;;;;;;8.77;4.75;;;6.60;99.90;;;;;;4791737;29;20195;-78
2023/04/13 00:05:21;;;;;;;9.50;5.13;;;6.60;99.90;;;;;;4795037;29;20207;-78
2023/04/13 00:07:49;;;;;;;8.15;5.07;;;6.60;99.90;;;;;;4784925;29;20189;-77
2023/04/13 00:10:17;;;;;;;13.07;5.30;;;6.60;99.90;;;;;;4793594;29;20200;-78
2023/04/13 00:12:47;;;;;;;11.38;6.07;;;6.60;99.90;;;;;;4807852;29;20277;-77
2023/04/13 00:15:20;;;;;;;10.38;5.72;;;6.60;99.90;;;;;;4807526;29;20219;-77
2023/04/13 00:17:46;;;;;;;11.63;6.32;;;6.60;99.90;;;;;;4807338;29;20171;-78
2023/04/13 00:20:13;;;;;;;10.13;6.40;;;6.70;99.90;;;;;;4791427;29;20200;-77
2023/04/13 00:22:41;;;;;;;9.27;5.00;;;6.70;99.90;;;;;;4799958;29;20260;-77
2023/04/13 00:25:07;;;;;;;7.95;4.55;;;6.70;99.90;;;;;;4806879;29;20215;-76
2023/04/13 00:27:34;;;;;;;6.80;4.75;;;6.70;99.90;;;;;;4807231;29;20184;-79
2023/04/13 00:30:00;;;;;;;8.68;4.75;;;6.70;99.90;;;;;;4791241;29;20196;-78
2023/04/13 00:32:26;;;;;;;8.43;4.53;;;6.80;99.90;;;;;;4807634;29;20214;-77
2023/04/13 00:34:52;;;;;;;7.45;4.38;;;6.80;99.90;;;;;;4784727;29;20677;-78
2023/04/13 00:37:19;;;;;;;7.68;4.05;;;6.80;99.90;;;;;;4799416;29;20203;-76
2023/04/13 00:39:45;;;;;;;6.10;3.63;;;6.80;99.90;;;;;;4790701;29;20249;-78
2023/04/13 00:42:12;;;;;;;6.03;4.15;;;6.90;99.90;;;;;;4807527;29;20184;-78
2023/04/13 00:44:38;;;;;;;5.93;4.20;;;6.90;99.90;;;;;;4815291;29;20218;-76
2023/04/13 00:47:06;;;;;;;8.63;4.10;;;6.90;99.90;;;;;;4773851;30;20193;-77
2023/04/13 00:49:33;;;;;;;7.00;4.18;;;6.90;99.90;;;;;;4785034;29;21110;-76
2023/04/13 00:52:00;;;;;;;9.52;4.60;;;6.90;99.90;;;;;;4804131;29;20204;-77
2023/04/13 00:54:28;;;;;;;9.95;4.38;;;6.90;99.90;;;;;;4802153;29;20248;-77
2023/04/13 00:56:56;;;;;;;6.10;3.85;;;6.90;99.90;;;;;;4799796;29;20749;-78
2023/04/13 00:59:22;;;;;;;9.15;4.43;;;6.90;99.90;;;;;;4793227;29;20180;-77
2023/04/13 01:01:55;;;;;;;6.63;4.45;;;7.00;99.90;;;;;;4775819;29;20196;-76
2023/04/13 01:04:23;;;;;;;7.38;4.18;;;7.10;99.90;;;;;;4806598;29;20205;-78
2023/04/13 01:07:12;;;;;;;10.70;4.80;;;7.10;99.90;;;;;;4805986;29;20191;-79
2023/04/13 01:09:40;;;;;;;5.07;3.85;;;7.10;99.90;;;;;;4808219;29;20240;-78
2023/04/13 01:12:30;;;;;;;7.63;5.05;;;7.20;99.90;;;;;;4805677;29;20180;-78
2023/04/13 01:15:05;;;;;;;7.25;5.03;;;7.20;99.90;;;;;;4805625;29;20665;-78
2023/04/13 01:17:34;;;;;;;7.85;5.45;;;7.20;99.90;;;;;;4822072;29;20744;-77
2023/04/13 01:20:14;;;;;;;7.90;5.70;;;7.20;99.90;;;;;;4797652;29;20196;-77
2023/04/13 01:23:20;;;;;;;13.05;6.18;;;7.20;99.90;;;;;;4789812;29;20209;-77
2023/04/13 01:25:55;;;;;;;11.57;6.28;;;7.20;99.90;;;;;;4783214;30;20778;-77
2023/04/13 01:28:22;;;;;;;10.50;6.95;;;7.20;99.90;;;;;;4787156;29;20193;-78
2023/04/13 01:30:52;;;;;;;10.57;6.32;;;7.10;99.90;;;;;;4797307;29;20223;-77
2023/04/13 01:33:20;;;;;;;7.90;6.13;;;7.10;99.90;;;;;;4790373;29;20260;-77
2023/04/13 01:35:49;;;;;;;7.50;5.45;;;7.00;99.90;;;;;;4805554;29;20222;-77
2023/04/13 01:38:23;;;;;;;8.85;6.13;;;7.00;99.90;;;;;;4775555;29;20237;-77
2023/04/13 01:40:50;;;;;;;11.85;5.70;;;7.00;99.90;;;;;;4795545;29;20188;-78
2023/04/13 01:43:19;;;;;;;6.05;4.22;;;7.00;99.90;;;;;;4774818;29;20192;-78
2023/04/13 01:46:06;;;;;;;5.82;3.88;;;7.00;99.90;;;;;;4789704;29;20345;-78
2023/04/13 01:48:55;;;;;;;5.93;4.40;;;7.00;99.90;;;;;;4789663;29;20188;-78
2023/04/13 01:51:33;;;;;;;6.22;4.60;;;7.00;99.90;;;;;;4786314;29;20180;-78
2023/04/13 01:54:11;;;;;;;9.82;4.57;;;6.90;99.90;;;;;;4789498;29;20195;-78
2023/04/13 01:56:42;;;;;;;9.60;4.68;;;7.00;99.90;;;;;;4772264;29;20223;-78
2023/04/13 01:59:09;;;;;;;6.85;3.85;;;6.90;99.90;;;;;;4779502;29;20200;-78
2023/04/13 02:01:37;;;;;;;6.32;3.42;;;7.00;99.90;;;;;;4786258;29;20180;-78
2023/04/13 02:04:04;;;;;;;8.30;3.25;;;6.90;99.90;;;;;;4812568;29;20187;-77
2023/04/13 02:06:31;;;;;;;5.25;3.70;;;6.90;99.90;;;;;;4789917;29;20196;-84
2023/04/13 02:08:58;;;;;;;4.90;3.35;;;6.90;99.90;;;;;;4789385;29;20681;-77
2023/04/13 02:11:24;;;;;;;9.35;3.20;;;6.80;99.90;;;;;;4789080;29;20674;-77
2023/04/13 02:13:51;;;;;;;4.03;3.17;;;6.90;99.90;;;;;;4789583;29;20238;-77
2023/04/13 02:16:19;;;;;;;6.45;3.40;;;6.90;99.90;;;;;;4789926;29;20215;-77
2023/04/13 02:18:45;;;;;;;6.05;3.60;;;6.90;99.90;;;;;;4804011;29;20199;-77
2023/04/13 02:21:12;;;;;;;6.15;3.45;;;6.90;99.90;;;;;;4775059;29;20191;-77
2023/04/13 02:23:40;;;;;;;6.03;3.55;;;6.90;99.90;;;;;;4787216;29;20197;-78
2023/04/13 02:26:13;;;;;;;6.50;3.15;;;6.90;99.90;;;;;;4803392;29;20184;-79
2023/04/13 02:28:39;;;;;;;7.68;3.25;;;6.90;99.90;;;;;;4786649;29;20220;-77
2023/04/13 02:31:06;;;;;;;7.43;3.30;;;6.90;99.90;;;;;;4785506;29;20196;-77
2023/04/13 02:33:33;;;;;;;4.43;3.00;;;6.80;99.90;;;;;;4789956;29;20205;-76
2023/04/13 02:36:01;;;;;;;5.25;3.20;;;6.80;99.90;;;;;;4805554;29;20211;-77
2023/04/13 02:38:30;;;;;;;5.40;3.10;;;6.80;99.90;;;;;;4788655;29;20630;-78
2023/04/13 02:41:03;;;;;;;3.13;2.78;;;6.80;99.90;;;;;;4787343;29;20746;-80
2023/04/13 02:43:29;;;;;;;6.60;3.03;;;6.80;99.90;;;;;;4793031;29;20200;-78
2023/04/13 02:45:56;;;;;;;5.75;2.83;;;6.80;99.90;;;;;;4778120;29;20202;-78
2023/04/13 02:48:25;;;;;;;4.05;2.22;;;6.80;99.90;;;;;;4787783;29;20633;-78
2023/04/13 02:50:54;;;;;;;6.95;2.78;;;6.80;99.90;;;;;;4799317;29;20240;-77
2023/04/13 02:53:24;;;;;;;5.68;2.88;;;6.80;99.90;;;;;;4804476;29;20188;-78
2023/04/13 02:55:52;;;;;;;4.90;2.58;;;6.80;99.90;;;;;;4807845;29;20254;-78
2023/04/13 02:58:20;;;;;;;4.03;2.35;;;6.80;99.90;;;;;;4807301;29;20722;-77
2023/04/13 03:00:50;;;;;;;5.82;2.63;;;6.80;99.90;;;;;;4794359;29;20610;-78
2023/04/13 03:03:19;;;;;;;3.67;2.20;;;6.80;99.90;;;;;;4806770;29;20196;-82
2023/04/13 03:05:49;;;;;;;5.20;2.50;;;6.80;99.90;;;;;;4790008;29;20197;-77
2023/04/13 03:08:18;;;;;;;5.70;2.35;;;6.90;99.90;;;;;;4788936;29;20232;-78
2023/04/13 03:11:07;;;;;;;6.95;2.17;;;6.90;99.90;;;;;;4803174;29;20265;-77
2023/04/13 03:13:33;;;;;;;4.03;2.25;;;6.90;99.90;;;;;;4779006;29;20218;-77
2023/04/13 03:15:59;;;;;;;4.50;2.63;;;6.80;99.90;;;;;;4806422;29;20696;-78
2023/04/13 03:18:26;;;;;;;5.03;2.47;;;6.90;99.90;;;;;;4792167;29;20203;-79
2023/04/13 03:20:53;;;;;;;4.07;2.00;;;6.90;99.90;;;;;;4807408;29;20200;-77
2023/04/13 03:23:21;;;;;;;3.25;2.30;;;6.90;99.90;;;;;;4792754;29;20333;-77
2023/04/13 03:25:47;;;;;;;3.20;2.08;;;6.90;99.90;;;;;;4801633;29;20224;-78
2023/04/13 03:28:14;;;;;;;3.58;2.20;;;6.90;99.90;;;;;;4794760;29;20287;-80
2023/04/13 03:30:43;;;;;;;3.67;2.15;;;6.90;99.90;;;;;;4792305;29;20192;-78
2023/04/13 03:33:09;;;;;;;5.07;2.20;;;6.90;99.90;;;;;;4807182;29;20870;-77
2023/04/13 03:35:37;;;;;;;7.15;2.40;;;6.90;99.90;;;;;;4778727;29;20314;-79
2023/04/13 03:38:07;;;;;;;5.13;2.50;;;6.90;99.90;;;;;;4791915;29;20341;-78
2023/04/13 03:40:36;;;;;;;3.88;2.45;;;6.90;99.90;;;;;;4789007;30;20650;-77
2023/04/13 03:43:02;;;;;;;7.13;2.47;;;6.90;99.90;;;;;;4790269;29;20197;-78
2023/04/13 03:45:32;;;;;;;5.13;2.40;;;6.90;99.90;;;;;;4796549;29;20203;-77
2023/04/13 03:48:01;;;;;;;3.60;2.33;;;6.90;99.90;;;;;;4779652;29;20611;-78
2023/04/13 03:50:27;;;;;;;6.45;2.50;;;6.90;99.90;;;;;;4758549;30;20188;-78
2023/04/13 03:52:54;;;;;;;4.70;2.47;;;6.90;99.90;;;;;;4786672;29;20201;-78
2023/04/13 03:55:21;;;;;;;8.48;2.85;;;7.00;99.90;;;;;;4778695;29;20227;-78
2023/04/13 03:57:49;;;;;;;7.72;2.60;;;7.00;99.90;;;;;;4794883;29;20196;-78
2023/04/13 04:00:20;;;;;;;5.80;2.78;;;7.00;99.90;;;;;;4790580;29;20196;-77
2023/04/13 04:02:58;;;;;;;7.18;2.60;;;7.00;99.90;;;;;;4785942;29;20215;-78
2023/04/13 04:05:32;;;;;;;4.85;2.45;;;7.00;99.90;;;;;;4796015;29;20206;-78
2023/04/13 04:08:02;;;;;;;6.70;2.80;;;7.00;99.90;;;;;;4805766;29;20257;-78
2023/04/13 04:10:28;;;;;;;4.40;2.72;;;7.10;99.90;;;;;;4789397;29;20236;-78
2023/04/13 04:12:56;;;;;;;3.72;2.38;;;7.10;99.90;;;;;;4806144;29;20188;-78
2023/04/13 04:15:23;;;;;;;6.28;2.40;;;7.10;99.90;;;;;;4792288;29;20677;-78
2023/04/13 04:17:56;;;;;;;2.97;2.20;;;7.10;99.90;;;;;;4806218;29;20581;-77
2023/04/13 04:20:22;;;;;;;4.32;2.70;;;7.10;99.90;;;;;;4777238;29;20649;-80
2023/04/13 04:22:52;;;;;;;4.68;2.58;;;7.10;99.90;;;;;;4807885;29;20192;-78
2023/04/13 04:25:21;;;;;;;3.90;2.80;;;7.10;99.90;;;;;;4787867;30;20196;-78
2023/04/13 04:27:51;;;;;;;3.80;2.50;;;7.10;99.90;;;;;;4787937;29;20185;-78
2023/04/13 04:30:20;;;;;;;4.63;2.47;;;7.10;99.90;;;;;;4799054;29;20191;-78
2023/04/13 04:32:47;;;;;;;6.10;2.53;;;7.10;99.90;;;;;;4791531;29;20192;-78
2023/04/13 04:35:19;;;;;;;3.28;2.47;;;7.10;99.90;;;;;;4805533;29;20227;-78
2023/04/13 04:37:53;;;;;;;4.75;2.63;;;7.10;99.90;;;;;;4806308;29;20195;-77
2023/04/13 04:40:21;;;;;;;4.15;2.80;;;7.10;99.90;;;;;;4791015;29;20676;-77
2023/04/13 04:42:47;;;;;;;3.92;2.65;;;7.00;99.90;;;;;;4776387;29;20279;-77
2023/04/13 04:45:27;;;;;;;7.85;2.83;;;7.00;99.90;;;;;;4790524;29;20679;-77
2023/04/13 04:47:58;;;;;;;4.25;2.88;;;7.00;99.90;;;;;;4797046;29;20565;-77
2023/04/13 04:50:25;;;;;;;5.55;3.15;;;6.90;99.90;;;;;;4794059;29;20295;-77
2023/04/13 04:53:06;;;;;;;5.63;2.67;;;6.90;99.90;;;;;;4793910;29;20536;-77
2023/04/13 04:55:33;;;;;;;4.30;2.45;;;6.90;99.90;;;;;;4790834;29;20219;-76
2023/04/13 04:57:59;;;;;;;6.43;2.90;;;6.80;99.90;;;;;;4805998;29;20188;-79
2023/04/13 05:00:26;;;;;;;5.30;3.30;;;6.80;99.90;;;;;;4791403;29;20286;-77
2023/04/13 05:03:01;;;;;;;3.58;2.70;;;6.80;99.90;;;;;;4790338;29;20203;-77
2023/04/13 05:05:30;;;;;;;6.90;2.85;;;6.80;99.90;;;;;;4790733;29;20195;-77
2023/04/13 05:08:00;;;;;;;4.80;2.97;;;6.80;99.90;;;;;;4797747;29;20642;-76
2023/04/13 05:10:28;;;;;;;7.22;3.15;;;6.80;99.90;;;;;;4795891;29;20236;-77
2023/04/13 05:12:55;;;;;;;8.55;3.33;;;6.90;99.90;;;;;;4772142;29;20193;-77
2023/04/13 05:15:23;;;;;;;5.20;3.55;;;6.90;99.90;;;;;;4788882;29;20223;-77
2023/04/13 05:17:49;;;;;;;7.22;3.67;;;6.90;99.90;;;;;;4778664;29;20192;-77
2023/04/13 05:20:16;;;;;;;8.35;4.10;;;6.90;99.90;;;;;;4823570;29;20191;-76
2023/04/13 05:22:51;;;;;;;6.47;4.15;;;7.00;99.90;;;;;;4807813;29;20201;-76
2023/04/13 05:25:17;;;;;;;6.55;4.47;;;7.00;99.90;;;;;;4790480;29;20203;-76
2023/04/13 05:27:45;;;;;;;7.32;4.82;;;7.00;99.90;;;;;;4789286;29;20200;-77
2023/04/13 05:30:12;;;;;;;10.38;4.53;;;7.00;99.90;;;;;;4811160;29;20191;-79
2023/04/13 05:32:39;;;;;;;6.53;4.80;;;7.00;99.90;;;;;;4779814;30;20277;-77
2023/04/13 05:35:06;;;;;;;7.65;4.90;;;7.10;99.90;;;;;;4800528;29;20218;-77
2023/04/13 05:37:32;;;;;;;9.82;5.22;;;7.10;99.90;;;;;;4815760;29;20188;-78
2023/04/13 05:39:59;;;;;;;7.93;4.90;;;7.10;99.90;;;;;;4805248;29;20192;-76
2023/04/13 05:42:30;;;;;;;6.85;5.28;;;7.20;99.90;;;;;;4799875;29;20219;-77
2023/04/13 05:44:56;;;;;;;7.40;5.60;;;7.20;99.90;;;;;;4790287;29;20195;-78
2023/04/13 05:47:24;;;;;;;6.88;5.15;;;7.20;99.90;;;;;;4805403;29;20197;-77
2023/04/13 05:49:55;;;;;;;6.40;5.18;;;7.20;99.90;;;;;;4788809;29;20192;-77
2023/04/13 05:52:21;;;;;;;7.63;5.13;;;7.30;99.90;;;;;;4796804;29;20657;-77
2023/04/13 05:54:49;;;;;;;7.15;5.10;;;7.30;99.90;;;;;;4806284;29;20229;-78
2023/04/13 05:57:19;;;;;;;7.78;5.00;;;7.30;99.90;;;;;;4792567;29;20209;-78
2023/04/13 05:59:47;;;;;;;7.57;5.30;;;7.40;99.90;;;;;;4790215;29;20193;-77
2023/04/13 06:02:19;;;;;;;9.65;5.53;;;7.50;99.90;;;;;;4789377;29;20188;-77
2023/04/13 06:04:45;;;;;;;8.80;4.53;;;7.50;99.90;;;;;;4789506;29;20219;-82
2023/04/13 06:07:15;;;;;;;9.15;4.35;;;7.60;99.90;;;;;;4804390;29;20711;-76
2023/04/13 06:09:41;;;;;;;6.40;4.30;;;7.60;99.90;;;;;;4789564;29;20601;-75
2023/04/13 06:12:07;;;;;;;11.20;4.47;;;7.70;99.90;;;;;;4789100;29;20191;-76
2023/04/13 06:14:33;;;;;;;6.35;4.28;;;7.90;99.90;;;;;;4806228;29;20608;-76
2023/04/13 06:16:59;;;;;;;7.30;4.10;;;8.00;99.90;;;;;;4794106;29;20240;-77
2023/04/13 06:19:26;;;;;;;11.57;4.32;;;8.10;99.90;;;;;;4771955;30;20246;-78
2023/04/13 06:21:53;;;;;;;7.90;4.55;;;8.10;99.90;;;;;;4786466;29;20547;-85
2023/04/13 06:24:20;;;;;;;8.10;4.00;;;8.20;99.90;;;;;;4787140;29;20184;-78
2023/04/13 06:26:46;;;;;;;8.55;4.70;;;8.20;99.90;;;;;;4778203;29;20566;-78
2023/04/13 06:29:12;;;;;;;9.65;4.25;;;8.20;99.90;;;;;;4787031;29;20198;-77
2023/04/13 06:31:48;;;;;;;7.85;4.07;;;8.10;99.90;;;;;;4808845;29;20191;-77
2023/04/13 06:34:17;;;;;;;6.82;4.28;;;8.10;99.90;;;;;;4793292;29;20214;-77
2023/04/13 06:36:43;;;;;;;11.60;4.40;;;8.10;99.90;;;;;;4791162;29;20330;-76
2023/04/13 06:39:12;;;;;;;7.45;3.97;;;8.10;99.90;;;;;;4803140;29;20199;-76
2023/04/13 06:41:42;;;;;;;6.30;3.75;;;8.10;99.90;;;;;;4811304;29;20191;-77
2023/04/13 06:44:18;;;;;;;5.32;3.28;;;8.20;99.90;;;;;;4811340;29;20187;-75
2023/04/13 06:46:56;;;;;;;5.82;3.00;;;8.20;99.90;;;;;;4800425;29;20215;-76
2023/04/13 06:49:25;;;;;;;5.90;3.05;;;8.20;99.90;;;;;;4806016;29;20193;-76
2023/04/13 06:51:51;;;;;;;5.20;2.83;;;8.30;99.90;;;;;;4791502;29;20615;-77
2023/04/13 06:54:16;;;;;;;7.03;2.90;;;8.30;99.90;;;;;;4808010;29;20198;-77
2023/04/13 06:56:46;;;;;;;8.10;3.45;;;8.20;99.90;;;;;;4792933;29;20310;-75
2023/04/13 06:59:12;;;;;;;6.75;3.30;;;8.20;99.90;;;;;;4810221;29;20216;-77
2023/04/13 07:01:38;;;;;;;5.78;3.15;;;8.20;99.90;;;;;;4814661;29;20279;-78
2023/04/13 07:04:06;;;;;;;5.53;3.08;;;8.20;99.90;;;;;;4794307;29;20672;-77
2023/04/13 07:06:33;;;;;;;5.95;3.47;;;8.20;99.90;;;;;;4793146;29;20200;-76
2023/04/13 07:09:00;;;;;;;9.60;3.97;;;8.10;99.90;;;;;;4790049;30;20564;-76
2023/04/13 07:11:28;;;;;;;14.73;4.75;;;8.10;99.90;;;;;;4789538;29;20231;-76
2023/04/13 07:13:54;;;;;;;8.65;4.20;;;8.10;99.90;;;;;;4800947;29;20218;-77
2023/04/13 07:16:22;;;;;;;9.43;4.40;;;8.10;99.90;;;;;;4792292;29;20224;-76
2023/04/13 07:18:48;;;;;;;9.20;4.90;;;8.10;99.90;;;;;;4807536;29;20195;-76
2023/04/13 07:21:14;;;;;;;12.02;5.28;;;8.20;99.90;;;;;;4808716;29;20191;-76
2023/04/13 07:23:54;;;;;;;11.98;4.78;;;8.90;99.90;;;;;;4788044;29;20204;-77
2023/04/13 07:26:21;;;;;;;9.95;4.63;;;9.60;99.90;;;;;;4774727;30;20201;-78
2023/04/13 07:28:47;;;;;;;10.07;4.75;;;9.70;99.90;;;;;;4789510;30;20193;-78
2023/04/13 07:31:13;;;;;;;9.75;4.07;;;9.60;99.90;;;;;;4790014;30;20203;-78
2023/04/13 07:33:43;;;;;;;11.77;4.78;;;9.50;99.90;;;;;;4774179;30;20208;-78
2023/04/13 07:36:10;;;;;;;10.90;4.43;;;9.40;99.90;;;;;;4801957;29;20219;-78
2023/04/13 07:38:38;;;;;;;8.38;3.95;;;9.30;99.90;;;;;;4791703;29;20645;-78
2023/04/13 07:41:04;;;;;;;10.02;4.47;;;9.20;99.90;;;;;;4790401;29;20204;-78
2023/04/13 07:43:34;;;;;;;10.75;4.53;;;9.10;99.90;;;;;;4792115;29;20607;-78
2023/04/13 07:46:08;;;;;;;8.80;4.57;;;9.00;99.90;;;;;;4807365;29;20287;-78
2023/04/13 07:48:34;;;;;;;10.32;4.10;;;8.90;99.90;;;;;;4808781;29;20165;-78
2023/04/13 07:51:14;;;;;;;6.53;3.92;;;8.90;99.90;;;;;;4809578;29;20197;-80
2023/04/13 07:53:40;;;;;;;12.98;4.60;;;9.10;99.90;;;;;;4821929;29;20233;-78
2023/04/13 07:56:06;;;;;;;11.48;4.07;;;10.00;99.90;;;;;;4798565;29;20235;-77
2023/04/13 07:58:36;;;;;;;8.68;3.50;;;11.90;99.90;;;;;;4806868;29;20199;-78
2023/04/13 08:01:02;;;;;;;11.30;3.58;;;13.10;99.90;;;;;;4825362;29;20191;-78
2023/04/13 08:03:35;;;;;;;7.57;3.22;;;13.20;99.90;;;;;;4809595;29;20195;-78
2023/04/13 08:06:09;;;;;;;13.20;3.08;;;13.00;99.90;;;;;;4794999;29;20203;-79
2023/04/13 08:08:35;;;;;;;10.88;3.17;;;12.70;99.90;;;;;;4808541;29;20247;-79
2023/04/13 08:11:01;;;;;;;8.00;3.25;;;12.30;99.90;;;;;;4803125;29;20243;-79
2023/04/13 08:13:28;;;;;;;10.95;3.10;;;11.90;99.90;;;;;;4807180;29;20188;-78
2023/04/13 08:15:56;;;;;;;8.15;2.85;;;11.60;99.90;;;;;;4795802;29;20300;-80
2023/04/13 08:18:22;;;;;;;10.35;3.00;;;11.30;99.90;;;;;;4809435;29;20191;-79
2023/04/13 08:20:49;;;;;;;8.68;2.55;;;10.90;99.90;;;;;;4806957;29;20356;-79
2023/04/13 08:23:17;;;;;;;8.20;2.33;;;10.70;99.90;;;;;;4789606;29;20570;-79
2023/04/13 08:25:44;;;;;;;5.88;2.50;;;10.60;99.90;;;;;;4798675;29;20197;-78
2023/04/13 08:28:10;;;;;;;6.50;2.30;;;10.50;99.90;;;;;;4800655;29;20705;-78
2023/04/13 08:30:35;;;;;;;6.35;2.10;;;10.40;99.90;;;;;;4817794;29;20284;-78
2023/04/13 08:33:02;;;;;;;3.30;1.90;;;10.50;99.90;;;;;;4788369;29;20228;-79
2023/04/13 08:35:28;;;;;;;6.32;1.88;;;10.50;99.90;;;;;;4784594;29;20217;-78
2023/04/13 08:37:57;;;;;;;5.10;1.92;;;10.50;99.90;;;;;;4777719;29;20223;-78
2023/04/13 08:40:23;;;;;;;3.63;1.70;;;10.40;99.90;;;;;;4788389;29;20277;-79
2023/04/13 08:42:54;;;;;;;5.10;1.80;;;10.30;99.90;;;;;;4773701;30;20216;-78
2023/04/13 08:45:20;;;;;;;6.13;2.00;;;10.40;99.90;;;;;;4804022;29;20279;-79
2023/04/13 08:47:48;;;;;;;5.60;2.08;;;10.50;99.90;;;;;;4782185;29;20277;-79
2023/04/13 08:50:16;;;;;;;6.15;1.83;;;10.70;99.90;;;;;;4800240;29;20691;-77
2023/04/13 08:52:46;;;;;;;7.80;1.90;;;10.80;99.90;;;;;;4778806;29;20201;-77
2023/04/13 08:55:14;;;;;;;4.15;1.80;;;10.70;99.90;;;;;;4801798;29;20220;-78
2023/04/13 08:57:41;;;;;;;5.30;1.60;;;10.60;99.90;;;;;;4791389;29;20188;-78
2023/04/13 09:00:12;;;;;;;3.53;1.35;;;10.40;99.90;;;;;;4801957;29;20196;-78
2023/04/13 09:02:39;;;;;;;3.47;1.80;;;10.30;99.90;;;;;;4797863;29;20184;-78
2023/04/13 09:05:14;;;;;;;3.60;1.80;;;10.20;99.90;;;;;;4791113;29;20645;-78
2023/04/13 09:07:52;;;;;;;8.15;1.55;;;10.10;99.90;;;;;;4791294;29;20225;-78
2023/04/13 09:10:24;;;;;;;4.93;1.70;;;10.10;99.90;;;;;;4791418;29;20243;-78
2023/04/13 09:12:50;;;;;;;4.82;1.50;;;10.20;99.90;;;;;;4803772;29;20498;-78
2023/04/13 09:15:16;;;;;;;4.15;1.40;;;10.10;99.90;;;;;;4760249;29;20219;-78
2023/04/13 09:18:08;;;;;;;3.17;1.48;;;10.20;99.90;;;;;;4806621;29;20212;-78
2023/04/13 09:20:35;;;;;;;5.50;1.67;;;10.10;99.90;;;;;;4794160;29;20200;-78
2023/04/13 09:23:14;;;;;;;5.20;1.40;;;10.20;99.90;;;;;;4772364;30;20228;-78
2023/04/13 09:25:40;;;;;;;5.05;1.50;;;10.30;99.90;;;;;;4796776;29;20271;-77
2023/04/13 09:28:07;;;;;;;4.93;1.50;;;10.40;99.90;;;;;;4805011;29;20325;-77
2023/04/13 09:30:33;;;;;;;6.15;1.50;;;10.50;99.90;;;;;;4793560;29;20712;-83
2023/04/13 09:33:03;;;;;;;4.93;1.33;;;10.60;99.90;;;;;;4795410;29;20309;-80
2023/04/13 09:35:30;;;;;;;3.70;1.42;;;10.50;99.90;;;;;;4805382;29;20228;-79
2023/04/13 09:37:57;;;;;;;4.68;1.67;;;10.50;99.90;;;;;;4792538;29;20226;-80
2023/04/13 09:40:23;;;;;;;3.72;1.40;;;10.50;99.90;;;;;;4802676;29;20199;-78
2023/04/13 09:42:56;;;;;;;7.05;1.73;;;10.40;99.90;;;;;;4787965;29;20192;-79
2023/04/13 09:45:22;;;;;;;5.55;1.88;;;10.20;99.90;;;;;;4781290;29;20635;-77
2023/04/13 09:47:48;;;;;;;3.85;1.63;;;10.10;99.90;;;;;;4786883;29;20247;-79
2023/04/13 09:50:27;;;;;;;5.68;1.92;;;10.00;99.90;;;;;;4769984;29;20204;-77
2023/04/13 09:53:03;;;;;;;6.10;1.70;;;9.90;99.90;;;;;;4816039;29;20257;-80
2023/04/13 09:55:32;;;;;;;7.95;1.67;;;9.90;99.90;;;;;;4795391;29;20215;-77
2023/04/13 09:58:18;;;;;;;2.47;1.10;;;9.80;99.90;;;;;;4806305;29;20188;-78
2023/04/13 10:00:45;;;;;;;1.55;0.90;;;9.70;99.90;;;;;;4787171;29;20200;-77
2023/04/13 10:03:13;;;;;;;1.25;0.77;;;9.60;99.90;;;;;;4797869;29;20654;-80
2023/04/13 10:05:40;;;;;;;2.05;0.52;;;9.50;99.90;;;;;;4803639;29;20187;-78
2023/04/13 10:08:06;;;;;;;1.25;0.60;;;9.50;99.90;;;;;;4788545;29;20600;-78
2023/04/13 10:10:32;;;;;;;3.55;1.23;;;9.40;99.90;;;;;;4801772;29;20254;-78
2023/04/13 10:13:03;;;;;;;1.88;0.80;;;9.40;99.90;;;;;;4818540;29;20203;-78
2023/04/13 10:15:47;;;;;;;1.83;0.80;;;9.30;99.90;;;;;;4798510;29;20260;-78
2023/04/13 10:18:56;;;;;;;1.52;0.70;;;9.40;99.90;;;;;;4798523;29;20187;-79
2023/04/13 10:21:24;;;;;;;4.47;0.80;;;9.50;99.90;;;;;;4788666;29;20188;-78
2023/04/13 10:23:50;;;;;;;1.45;0.70;;;9.80;99.90;;;;;;4808726;29;20216;-80
2023/04/13 10:26:16;;;;;;;4.18;0.82;;;10.10;99.90;;;;;;4793102;29;20199;-78
2023/04/13 10:28:43;;;;;;;2.75;0.93;;;10.50;99.90;;;;;;4797193;29;20185;-77
2023/04/13 10:31:09;;;;;;;2.30;0.80;;;10.90;99.90;;;;;;4804584;29;20620;-78
2023/04/13 10:33:49;;;;;;;1.92;1.10;;;11.20;99.90;;;;;;4792048;29;20199;-81
2023/04/13 10:36:16;;;;;;;2.33;0.90;;;11.60;99.90;;;;;;4799545;29;20297;-78
2023/04/13 10:38:43;;;;;;;2.20;0.90;;;11.90;99.90;;;;;;4799467;29;20197;-79
2023/04/13 10:41:09;;;;;;;2.22;1.08;;;12.10;99.90;;;;;;4801720;29;20192;-78
2023/04/13 10:43:35;;;;;;;5.85;1.25;;;12.20;99.90;;;;;;4790245;29;20574;-80
2023/04/13 10:46:08;;;;;;;2.35;1.40;;;12.20;99.90;;;;;;4788993;29;20208;-81
2023/04/13 10:48:35;;;;;;;3.90;1.05;;;12.10;99.90;;;;;;4789799;29;20344;-79
2023/04/13 10:51:01;;;;;;;1.30;0.98;;;12.10;99.90;;;;;;4801658;29;20199;-77
2023/04/13 10:53:29;;;;;;;2.00;1.10;;;12.20;99.90;;;;;;4802694;29;20188;-80
2023/04/13 10:55:59;;;;;;;1.98;0.98;;;12.30;99.90;;;;;;4792533;29;20218;-79
2023/04/13 10:58:26;;;;;;;1.67;1.10;;;12.50;99.90;;;;;;4777308;29;20202;-81
2023/04/13 11:00:53;;;;;;;3.28;1.10;;;12.60;99.90;;;;;;4792580;29;20253;-85
2023/04/13 11:03:20;;;;;;;3.88;1.27;;;12.60;99.90;;;;;;4788341;29;20202;-80
2023/04/13 11:05:47;;;;;;;3.80;1.30;;;12.60;99.90;;;;;;4787113;30;20189;-81
2023/04/13 11:08:18;;;;;;;5.80;1.67;;;12.50;99.90;;;;;;4794890;29;20200;-81
2023/04/13 11:10:50;;;;;;;2.67;1.00;;;12.40;99.90;;;;;;4819440;29;20231;-81
2023/04/13 11:13:15;;;;;;;3.70;1.20;;;12.20;99.90;;;;;;4796954;29;20187;-81
2023/04/13 11:15:41;;;;;;;3.20;1.30;;;12.00;99.90;;;;;;4798314;29;20215;-77
2023/04/13 11:18:07;;;;;;;5.45;1.58;;;11.70;99.90;;;;;;4799804;29;20201;-86
2023/04/13 11:20:38;;;;;;;4.07;1.40;;;11.50;99.90;;;;;;4816305;29;20195;-79
2023/04/13 11:23:17;;;;;;;3.05;1.10;;;11.30;99.90;;;;;;4824445;29;20264;-80
2023/04/13 11:25:55;;;;;;;3.80;1.30;;;11.20;99.90;;;;;;4792174;29;20203;-79
2023/04/13 11:28:22;;;;;;;4.60;1.50;;;11.10;99.90;;;;;;4807784;29;20195;-80
2023/04/13 11:30:57;;;;;;;5.10;1.73;;;11.20;99.90;;;;;;4811731;29;20200;-81
2023/04/13 11:33:28;;;;;;;9.07;1.95;;;11.30;99.90;;;;;;4789611;29;20195;-81
2023/04/13 11:35:56;;;;;;;6.20;1.65;;;11.50;99.90;;;;;;4807045;29;20241;-78
2023/04/13 11:38:22;;;;;;;7.20;1.90;;;11.60;99.90;;;;;;4807142;29;20213;-79
2023/04/13 11:40:50;;;;;;;11.45;2.30;;;11.70;99.90;;;;;;4799778;29;20200;-78
2023/04/13 11:43:18;;;;;;;11.48;2.33;;;11.70;99.90;;;;;;4806933;29;20183;-80
2023/04/13 11:45:46;;;;;;;7.30;2.22;;;11.80;99.90;;;;;;4806321;29;20191;-80
2023/04/13 11:48:13;;;;;;;12.25;2.20;;;11.80;99.90;;;;;;4804902;29;20234;-81
2023/04/13 11:50:40;;;;;;;14.25;2.72;;;11.80;99.90;;;;;;4803837;29;20657;-77
2023/04/13 11:53:08;;;;;;;11.85;2.95;;;11.70;99.90;;;;;;4781669;29;20322;-77
2023/04/13 11:55:35;;;;;;;15.75;2.92;;;11.70;99.90;;;;;;4803187;29;20268;-79
2023/04/13 11:58:14;;;;;;;16.95;3.00;;;11.60;99.90;;;;;;4796645;29;20733;-80
2023/04/13 12:00:40;;;;;;;15.38;2.88;;;11.70;99.90;;;;;;4791117;29;20189;-77
2023/04/13 12:03:18;;;;;;;16.20;2.80;;;11.80;99.90;;;;;;4792318;29;20191;-78
2023/04/13 12:05:44;;;;;;;11.57;2.38;;;12.00;99.90;;;;;;4807697;29;20328;-86
2023/04/13 12:08:22;;;;;;;19.05;2.72;;;12.10;99.90;;;;;;4799191;29;20225;-78
2023/04/13 12:11:02;;;;;;;12.70;2.55;;;12.20;99.90;;;;;;4797604;29;20288;-78
2023/04/13 12:13:43;;;;;;;10.05;2.70;;;12.20;99.90;;;;;;4797968;29;20732;-78
2023/04/13 12:16:11;;;;;;;8.77;3.10;;;12.20;99.90;;;;;;4808164;29;20283;-78
2023/04/13 12:18:46;;;;;;;14.57;2.83;;;12.10;99.90;;;;;;4806336;29;20677;-76
2023/04/13 12:21:14;;;;;;;12.05;2.80;;;11.90;99.90;;;;;;4819664;29;20274;-77
2023/04/13 12:23:50;;;;;;;10.88;2.53;;;11.80;99.90;;;;;;4809035;29;20256;-78
2023/04/13 12:26:18;;;;;;;8.52;2.60;;;11.70;99.90;;;;;;4815328;29;20542;-79
2023/04/13 12:28:46;;;;;;;18.77;2.85;;;11.60;99.90;;;;;;4807369;29;20191;-78
2023/04/13 12:31:12;;;;;;;11.18;2.67;;;11.60;99.90;;;;;;4791490;29;20320;-80
2023/04/13 12:33:39;;;;;;;16.40;2.90;;;11.50;99.90;;;;;;4789628;29;20197;-86
2023/04/13 12:36:05;;;;;;;14.50;2.90;;;11.50;99.90;;;;;;4805577;29;20227;-78
2023/04/13 12:38:32;;;;;;;14.75;2.65;;;11.50;99.90;;;;;;4790850;29;20209;-77
2023/04/13 12:40:59;;;;;;;10.07;2.72;;;11.40;99.90;;;;;;4797151;29;20271;-78
2023/04/13 12:43:26;;;;;;;14.10;2.65;;;11.40;99.90;;;;;;4806403;29;20301;-78
2023/04/13 12:45:53;;;;;;;15.45;2.40;;;11.40;99.90;;;;;;4806742;29;20645;-79
2023/04/13 12:48:19;;;;;;;12.07;2.58;;;11.30;99.90;;;;;;4797094;29;20196;-78
2023/04/13 12:50:45;;;;;;;13.70;2.45;;;11.30;99.90;;;;;;4790547;29;20284;-78
2023/04/13 12:53:11;;;;;;;8.55;2.15;;;11.30;99.90;;;;;;4790127;29;20345;-84
2023/04/13 12:55:38;;;;;;;12.13;2.13;;;11.20;99.90;;;;;;4802609;29;20739;-77
2023/04/13 12:58:03;;;;;;;12.25;2.38;;;11.20;99.90;;;;;;4806081;29;20230;-76
2023/04/13 13:00:29;;;;;;;16.40;2.67;;;11.20;99.90;;;;;;4808219;29;20673;-78